Impacts METAR Board
IDs:

KLAS - Las Vegas/McCarran I, NV, US

Updated at: 1300 UTC 07 Jul 2020
Potential Impact None Slight Moderate High
Time 07/01Z 07/02Z 07/03Z 07/04Z 07/05Z 07/06Z 07/07Z 07/08Z 07/09Z 07/10Z 07/11Z 07/12Z 07/13Z
Temp106 104 101 99 96 92 92 91 89 87 87 86 85
Dewpt29 27 26 25 25 27 27 31 31 30 29 27 27
Altim29.72 29.73 29.74 29.76 29.77 29.78 29.79 29.80 29.79 29.79 29.78 29.79 29.80
VIS10 10 10 10 10 10 10 10 10 10 10 10 10
CIG-- -- -- -- -- -- -- -- -- -- -- -- --
CoverCLRCLRCLRCLRCLRCLRCLRCLRCLRCLRCLRCLRCLR
FltCatVFRVFRVFRVFRVFRVFRVFRVFRVFRVFRVFRVFRVFR
WX--------------------------
WDir240230230230190190200220220210200200190
WSpd12 10 11 8 3 6 9 9 9 7 12 8 9
WGst22 -- -- -- -- -- -- -- -- -- -- -- --
Raw hourly METARs
KLAS 070056Z 24012G22KT 10SM CLR 41/M02 A2972 RMK AO2 SLP032 T04111017
KLAS 070156Z 23010KT 10SM CLR 40/M03 A2973 RMK AO2 SLP036 T04001028
KLAS 070256Z 23011KT 10SM CLR 38/M03 A2974 RMK AO2 SLP039 T03831033 55001
KLAS 070356Z 23008KT 10SM CLR 37/M04 A2976 RMK AO2 SLP042 T03721039
KLAS 070456Z 19003KT 10SM CLR 36/M04 A2977 RMK AO2 SLP048 T03561039
KLAS 070556Z 19006KT 10SM CLR 33/M03 A2978 RMK AO2 SLP049 T03331028 10417 20333 51011
KLAS 070656Z 20009KT 10SM CLR 33/M03 A2979 RMK AO2 SLP053 T03331028
KLAS 070756Z 22009KT 10SM CLR 33/M01 A2980 RMK AO2 SLP055 T03281006 404220278
KLAS 070856Z 22009KT 10SM CLR 32/M01 A2979 RMK AO2 SLP055 T03171006 50005
KLAS 070956Z 21007KT 10SM CLR 31/M01 A2979 RMK AO2 SLP055 T03061011
KLAS 071056Z 20012KT 10SM CLR 31/M02 A2978 RMK AO2 SLP051 T03061017
KLAS 071156Z 20008KT 10SM CLR 30/M03 A2979 RMK AO2 SLP055 T03001028 10344 20300 55000
KLAS 071256Z 19009KT 10SM CLR 29/M03 A2980 RMK AO2 SLP059 T02941028



Page loaded:  13:50 UTC  |   06:50 AM Pacific  |   07:50 AM Mountain  |   08:50 AM Central  |   09:50 AM Eastern

 

ADVISORIES

FORECASTS

FORECASTS

OBSERVATIONS

USER TOOLS

ABOUT US